• Join FlightAware (Why Join?)
  • Login
  • US Flag 
05:12AM EDT


 

Airport Tracker/Info


-or-


 

Live Flight TrackerFlight Track Log ✈ UAL3732 ✈ 28-Apr-2013 ✈ KBTV - KORD

Flight Track Log - Related Links

Times and Time Zones

All times are in EDT time to prevent confusion due to time zone crossing. See the UAL3732 flight status page for this flight to view local times or setup timezone preferences in your user account.

Time Position Orientation Groundspeed Altitude Reporting Facility
EDT Latitude Longitude Course Direction KTS MPH feet Rate Location/Type
05:34PM 44.4911 -73.3481 255° West 237 273 5,300  Level Boston Center
05:35PM 44.4736 -73.4611 258° West 261 300 9,000 2,820 Climbing Boston Center
05:36PM 44.4539 -73.5539 253° West 266 306 11,000 1,740 Climbing Boston Center
05:37PM 44.4317 -73.6756 256° West 302 348 12,500 1,800 Climbing Boston Center
05:38PM 44.3265 -73.9696 255° West  Level FlightAware Approximate
05:38PM 44.4031 -73.8203 255° West 329 379 14,700  Level Boston Center
05:39PM 44.3007 -74.1055 255° West  Level FlightAware Approximate
05:39PM 44.3764 -73.9561 255° West 348 400 16,800  Level Boston Center
05:40PM 44.3517 -74.0919 256° West 364 419 18,300 1,500 Climbing Boston Center
05:41PM 44.3267 -74.2219 255° West 375 432 19,800 1,560 Climbing Boston Center
05:42PM 44.2994 -74.3692 256° West 375 432 21,500 1,500 Climbing Boston Center
05:43PM 44.2697 -74.5131 254° West 386 444 22,900 1,200 Climbing Boston Center
05:44PM 44.2397 -74.6656 255° West 397 457 24,000 1,140 Climbing Boston Center
05:45PM 44.2097 -74.8208 255° West 404 465 25,200 1,200 Climbing Boston Center
05:46PM 44.1792 -74.9761 255° West 416 479 26,400 960 Climbing Boston Center
05:47PM 44.1486 -75.1339 255° West 416 479 27,200 1,260 Climbing Boston Center
05:48PM 44.1156 -75.2858 253° West 416 479 29,000 1,620 Climbing Boston Center
05:49PM 44.0869 -75.4347 255° West 411 473 30,500 1,260 Climbing Boston Center
05:50PM 44.0581 -75.5806 255° West 406 467 31,600 1,080 Climbing Boston Center
05:51PM 44.0267 -75.7264 253° West 401 461 32,700 1,020 Climbing Boston Center
05:52PM 43.9956 -75.8717 253° West 396 456 33,700 600 Climbing Boston Center
05:53PM 43.9639 -76.0200 254° West 396 456 34,000 360 Climbing Boston Center
05:54PM 43.9444 -76.1658 260° West 396 456 34,500 780 Climbing Boston Center
05:55PM 43.9333 -76.3153 264° West 391 450 35,600 720 Climbing Boston Center
05:56PM 43.9200 -76.4614 263° West 386 444 36,000 180 Climbing Boston Center
05:57PM 43.9086 -76.6047 264° West 386 444 36,000  Level Boston Center
05:58PM 43.8833 -76.7333 255° West 380 437 36,000  Level Toronto Center
05:59PM 43.8667 -76.8833 261° West 380 437 36,000  Level Toronto Center
06:00PM 43.8500 -77.0167 260° West 380 437 36,000  Level Toronto Center
06:01PM 43.8333 -77.1833 262° West 380 437 36,000  Level Toronto Center
06:02PM 43.8167 -77.3167 260° West 380 437 36,000  Level Toronto Center
06:03PM 43.8167 -77.4667 270° West 380 437 36,000  Level Toronto Center
06:04PM 43.8000 -77.6167 261° West 380 437 36,000  Level Toronto Center
06:05PM 43.7833 -77.7667 261° West 390 449 36,000  Level Toronto Center
06:06PM 43.7667 -77.9000 260° West 390 449 36,000  Level Toronto Center
06:07PM 43.7500 -78.0667 262° West 390 449 36,000  Level Toronto Center
06:08PM 43.7333 -78.2000 260° West 390 449 36,000  Level Toronto Center
06:09PM 43.7000 -78.3667 255° West 400 460 36,000  Level Toronto Center
06:10PM 43.7000 -78.5000 270° West 400 460 36,000  Level Toronto Center
06:11PM 43.6833 -78.6833 263° West 410 472 36,000  Level Toronto Center
06:12PM 43.6667 -78.8333 261° West 420 483 36,000  Level Toronto Center
06:13PM 43.6500 -78.9833 261° West 430 495 36,000  Level Toronto Center
06:14PM 43.6333 -79.1500 262° West 430 495 36,000  Level Toronto Center
06:15PM 43.6167 -79.3333 263° West 430 495 36,000  Level Toronto Center
06:16PM 43.6000 -79.5000 262° West 430 495 36,000  Level Toronto Center
06:17PM 43.5833 -79.6500 261° West 440 506 36,000  Level Toronto Center
06:18PM 43.5667 -79.8167 262° West 440 506 36,000  Level Toronto Center
06:19PM 43.5500 -79.9833 262° West 440 506 36,000  Level Toronto Center
06:20PM 43.5333 -80.1667 263° West 450 518 36,000  Level Toronto Center
06:21PM 43.5167 -80.3167 261° West 450 518 36,000  Level Toronto Center
06:22PM 43.5000 -80.5000 263° West 450 518 36,000  Level Toronto Center
06:23PM 43.4833 -80.6667 262° West 450 518 36,000  Level Toronto Center
06:24PM 43.4500 -80.8333 255° West 450 518 36,000  Level Toronto Center
06:25PM 43.4333 -81.0167 263° West 450 518 36,000  Level Toronto Center
06:26PM 43.4167 -81.1667 261° West 450 518 36,000  Level Toronto Center
06:27PM 43.4000 -81.3333 262° West 450 518 36,000  Level Toronto Center
06:28PM 43.3833 -81.5167 263° West 450 518 36,000  Level Toronto Center
06:29PM 43.3667 -81.6667 261° West 450 518 36,000  Level Toronto Center
06:30PM 43.3500 -81.8500 263° West 450 518 36,000  Level Toronto Center
06:31PM 43.3167 -82.0167 255° West 450 518 36,000  Level Toronto Center
06:32PM 43.3000 -82.1833 262° West 450 518 36,000  Level Toronto Center
06:33PM 43.2833 -82.3333 261° West 440 506 36,000  Level Toronto Center
06:34PM 43.2667 -82.5167 263° West 450 518 36,000  Level Toronto Center
06:35PM 43.2333 -82.6833 255° West 440 506 36,000  Level Toronto Center
06:35PM 43.2508 -82.7322 296° West 449 517 36,000  Level Cleveland Center
06:36PM 43.2061 -82.8931 249° West 449 517 36,000 -240 Level Cleveland Center
06:37PM 43.1633 -83.0508 250° West 455 524 35,600 -600 Descending Cleveland Center
06:38PM 43.1161 -83.2056 247° West 455 524 34,800 -660 Descending Cleveland Center
06:39PM 43.0747 -83.3714 251° West 455 524 34,300 -540 Descending Cleveland Center
06:40PM 43.0269 -83.5342 248° West 466 536 33,800 -540 Descending Cleveland Center
06:41PM 42.9786 -83.6992 248° West 466 536 33,300 -600 Descending Cleveland Center
06:42PM 42.9531 -83.8711 259° West 466 536 32,600 -660 Descending Cleveland Center
06:43PM 42.9356 -84.0431 262° West 460 529 32,000 -300 Descending Cleveland Center
06:44PM 42.9200 -84.2153 263° West 466 536 32,000  Level Cleveland Center
06:46PM 42.8961 -84.4661 263° West 472 543 32,000  Level Chicago Center
06:47PM 42.8744 -84.6783 262° West 472 543 32,000  Level Chicago Center
06:48PM 42.8558 -84.8531 262° West 469 540 32,000  Level Chicago Center
06:49PM 42.8383 -85.0203 262° West 450 518 32,000  Level Chicago Center
06:50PM 42.8197 -85.1875 261° West 447 514 32,000 -480 Level Chicago Center
06:51PM 42.8017 -85.3558 262° West 449 517 31,100 -1,440 Descending Chicago Center
06:52PM 42.7825 -85.5211 261° West 444 511 29,100 -2,040 Descending Chicago Center
06:53PM 42.7531 -85.6839 256° West 441 507 27,000 -2,040 Descending Chicago Center
06:54PM 42.7236 -85.8453 256° West 437 503 24,900 -2,280 Descending Chicago Center
06:55PM 42.6892 -86.0347 256° West 430 495 22,400 -2,280 Descending Chicago Center
06:56PM 42.6608 -86.1894 256° West 424 488 20,200 -1,200 Descending Chicago Center
06:57PM 42.6325 -86.3408 256° West 416 479 20,000 -1,080 Descending Chicago Center
06:58PM 42.6036 -86.4900 255° West 409 471 18,000 -1,980 Descending Chicago Center
06:59PM 42.5769 -86.6364 256° West 402 463 16,000 -1,920 Descending Chicago Center
07:00PM 42.5478 -86.7769 254° West 392 451 14,000 -2,160 Descending Chicago Center
07:01PM 42.5047 -86.9342 250° West 374 430 11,600 -1,980 Descending Chicago Center
07:02PM 42.4681 -87.0614 249° West 365 420 10,000 -900 Descending Chicago Center
07:03PM 42.4333 -87.1836 249° West 353 406 9,800 -300 Descending Chicago Center
07:04PM 42.4042 -87.2817 248° West 288 331 9,400 -540 Descending Chicago Center
07:05PM 42.3656 -87.3728 240° Southwest 281 323 8,700 -720 Descending Chicago Center
07:06PM 42.3264 -87.4686 241° Southwest 279 321 8,000 -600 Descending Chicago Center
07:07PM 42.2889 -87.5592 241° Southwest 278 320 7,500 -660 Descending Chicago Center
07:09PM 42.2231 -87.6461 224° Southwest 277 319 6,700 -1,080 Descending Chicago Center
07:10PM 42.1714 -87.7039 220° Southwest 255 293 5,300 -1,380 Descending Chicago Center
07:11PM 42.1233 -87.7581 220° Southwest 228 262 3,900 -1,320 Descending Chicago Center
07:11PM 42.1000 -87.7833 219° Southwest 211 243 3,500 -1,140 Descending Chicago TRACON
07:12PM 42.0667 -87.8167 217° Southwest 189 217 2,400 -1,020 Descending Chicago TRACON
07:13PM 42.0333 -87.8667 228° Southwest 157 181 1,500 -900 Descending Chicago TRACON